createdAt,value
2022-10-04T00:00:02.622Z,58.16
2022-10-04T00:01:02.612Z,57.17
2022-10-04T00:02:02.698Z,56.03
2022-10-04T00:03:02.666Z,55.59
2022-10-04T00:04:02.594Z,58.22
2022-10-04T00:05:02.600Z,57.23
2022-10-04T00:06:02.574Z,60.14
2022-10-04T00:07:02.569Z,56.55
2022-10-04T00:08:02.558Z,56.14
2022-10-04T00:09:02.579Z,55.43
2022-10-04T00:10:02.560Z,58.24
2022-10-04T00:11:02.547Z,57.28
2022-10-04T00:12:02.534Z,59.97
2022-10-04T00:13:02.539Z,58.80
2022-10-04T00:14:02.519Z,57.94
2022-10-04T00:15:02.531Z,57.34
2022-10-04T00:16:02.556Z,56.10
2022-10-04T00:17:02.497Z,57.35
2022-10-04T00:18:02.510Z,56.71
2022-10-04T00:19:02.504Z,57.34
2022-10-04T00:20:02.484Z,59.44
2022-10-04T00:21:02.491Z,56.93
2022-10-04T00:22:02.470Z,55.45
2022-10-04T00:23:02.464Z,54.88
2022-10-04T00:24:02.472Z,58.45
2022-10-04T00:25:02.455Z,57.32
2022-10-04T00:26:02.458Z,56.45
2022-10-04T00:27:02.464Z,59.14
2022-10-04T00:28:02.465Z,59.02
2022-10-04T00:29:02.415Z,57.97
2022-10-04T00:30:02.435Z,59.84
2022-10-04T00:31:02.479Z,57.08
2022-10-04T00:32:02.399Z,56.90
2022-10-04T00:33:02.409Z,56.87
2022-10-04T00:34:02.396Z,59.65
2022-10-04T00:35:02.385Z,57.13
2022-10-04T00:36:02.382Z,57.31
2022-10-04T00:37:02.376Z,55.92
2022-10-04T00:38:02.385Z,55.55
2022-10-04T00:39:02.369Z,55.73
2022-10-04T00:40:02.343Z,57.85
2022-10-04T00:41:02.336Z,58.08
2022-10-04T00:42:02.331Z,60.63
2022-10-04T00:43:02.330Z,59.95
2022-10-04T00:44:02.334Z,55.21
2022-10-04T00:45:02.344Z,57.98
2022-10-04T00:46:02.369Z,59.99
2022-10-04T00:47:02.308Z,57.83
2022-10-04T00:48:02.304Z,59.61
2022-10-04T00:49:02.292Z,60.01
2022-10-04T00:50:02.297Z,59.40
2022-10-04T00:51:02.306Z,57.43
2022-10-04T00:52:02.260Z,56.16
2022-10-04T00:53:02.260Z,56.23
2022-10-04T00:54:02.247Z,60.37
2022-10-04T00:55:02.264Z,59.49
2022-10-04T00:56:02.228Z,57.82
2022-10-04T00:57:02.226Z,57.10
2022-10-04T00:58:02.212Z,57.36
2022-10-04T00:59:02.251Z,57.74
2022-10-04T01:00:02.216Z,58.98
2022-10-04T01:01:02.292Z,60.36
2022-10-04T01:02:02.237Z,60.29
2022-10-04T01:03:02.192Z,58.01
2022-10-04T01:04:02.169Z,60.05
2022-10-04T01:05:02.166Z,57.50
2022-10-04T01:06:02.172Z,59.25
2022-10-04T01:07:02.154Z,61.12
2022-10-04T01:08:02.166Z,59.18
2022-10-04T01:09:02.145Z,58.73
2022-10-04T01:10:02.123Z,57.51
2022-10-04T01:11:02.124Z,60.70
2022-10-04T01:12:02.133Z,58.11
2022-10-04T01:13:02.112Z,58.22
2022-10-04T01:14:02.096Z,57.42
2022-10-04T01:15:02.089Z,60.26
2022-10-04T01:16:02.139Z,57.98
2022-10-04T01:17:02.076Z,56.21
2022-10-04T01:18:03.323Z,57.39
2022-10-04T01:19:02.062Z,60.05
2022-10-04T01:20:02.057Z,58.95
2022-10-04T01:21:02.076Z,60.65
2022-10-04T01:22:02.121Z,60.03
2022-10-04T01:23:02.035Z,58.15
2022-10-04T01:24:02.023Z,55.92
2022-10-04T01:25:02.008Z,60.89
2022-10-04T01:26:02.006Z,60.90
2022-10-04T01:27:02.024Z,57.03
2022-10-04T01:28:02.072Z,60.15
2022-10-04T01:29:01.978Z,61.29
2022-10-04T01:30:01.984Z,59.43
2022-10-04T01:31:02.019Z,60.63
2022-10-04T01:32:01.963Z,58.53
2022-10-04T01:33:01.973Z,60.66
2022-10-04T01:34:01.946Z,58.85
2022-10-04T01:35:01.950Z,59.64
2022-10-04T01:36:01.944Z,60.02
2022-10-04T01:37:01.944Z,57.22
2022-10-04T01:38:01.947Z,60.78
2022-10-04T01:39:01.922Z,60.40
2022-10-04T01:40:01.913Z,59.00
2022-10-04T01:41:01.903Z,57.60
2022-10-04T01:42:01.917Z,57.40
2022-10-04T01:43:01.900Z,59.93
2022-10-04T01:44:01.923Z,58.64
2022-10-04T01:45:01.875Z,56.90
2022-10-04T01:46:01.903Z,59.47
2022-10-04T01:47:01.876Z,60.99
2022-10-04T01:48:01.856Z,57.71
2022-10-04T01:49:01.852Z,59.44
2022-10-04T01:50:01.855Z,60.29
2022-10-04T01:51:01.835Z,61.89
2022-10-04T01:52:01.824Z,60.88
2022-10-04T01:53:01.828Z,59.53
2022-10-04T01:54:01.813Z,58.13
2022-10-04T01:55:01.810Z,59.20
2022-10-04T01:56:01.824Z,59.29
2022-10-04T01:57:01.812Z,59.06
2022-10-04T01:58:01.785Z,56.81
2022-10-04T01:59:01.780Z,60.66
2022-10-04T02:00:01.776Z,57.10
2022-10-04T02:01:01.847Z,59.50
2022-10-04T02:02:01.749Z,60.22
2022-10-04T02:03:01.752Z,58.67
2022-10-04T02:04:01.763Z,58.99
2022-10-04T02:05:01.820Z,58.61
2022-10-04T02:06:01.731Z,60.50
2022-10-04T02:07:01.724Z,60.54
2022-10-04T02:08:01.715Z,60.07
2022-10-04T02:09:01.701Z,58.99
2022-10-04T02:10:01.720Z,59.02
2022-10-04T02:11:01.697Z,58.83
2022-10-04T02:12:01.708Z,60.09
2022-10-04T02:13:01.685Z,57.36
2022-10-04T02:14:01.678Z,60.46
2022-10-04T02:15:01.681Z,57.48
2022-10-04T02:16:01.783Z,58.38
2022-10-04T02:17:01.690Z,59.02
2022-10-04T02:18:01.674Z,58.46
2022-10-04T02:19:01.651Z,61.31
2022-10-04T02:20:01.643Z,59.01
2022-10-04T02:21:01.630Z,58.35
2022-10-04T02:22:01.620Z,57.67
2022-10-04T02:23:01.618Z,58.43
2022-10-04T02:24:01.622Z,60.13
2022-10-04T02:25:01.597Z,57.89
2022-10-04T02:26:01.594Z,56.55
2022-10-04T02:27:01.586Z,56.99
2022-10-04T02:28:01.611Z,58.67
2022-10-04T02:29:01.571Z,60.07
2022-10-04T02:30:01.580Z,59.87
2022-10-04T02:31:01.594Z,57.67
2022-10-04T02:32:01.549Z,57.47
2022-10-04T02:33:01.562Z,57.95
2022-10-04T02:34:01.542Z,57.97
2022-10-04T02:35:01.535Z,59.17
2022-10-04T02:36:01.543Z,58.34
2022-10-04T02:37:01.533Z,58.52
2022-10-04T02:38:01.504Z,58.66
2022-10-04T02:39:01.506Z,57.72
2022-10-04T02:40:01.507Z,57.95
2022-10-04T02:41:01.499Z,58.99
2022-10-04T02:42:01.479Z,59.10
2022-10-04T02:43:01.491Z,57.48
2022-10-04T02:44:01.470Z,59.79
2022-10-04T02:45:01.469Z,60.02
2022-10-04T02:46:01.509Z,58.65
2022-10-04T02:47:01.449Z,59.05
2022-10-04T02:48:01.441Z,58.95
2022-10-04T02:49:01.447Z,57.50
2022-10-04T02:50:01.435Z,58.45
2022-10-04T02:51:01.430Z,61.24
2022-10-04T02:52:01.438Z,60.04
2022-10-04T02:53:01.407Z,59.95
2022-10-04T02:54:03.659Z,59.89
2022-10-04T02:55:01.396Z,60.67
2022-10-04T02:56:01.386Z,59.41
2022-10-04T02:57:01.397Z,60.67
2022-10-04T02:58:01.470Z,60.20
2022-10-04T02:59:01.353Z,60.29
2022-10-04T03:00:01.353Z,60.52
2022-10-04T03:01:01.380Z,60.55
2022-10-04T03:02:01.396Z,58.72
2022-10-04T03:03:01.352Z,58.21
2022-10-04T03:04:01.316Z,59.38
2022-10-04T03:05:01.312Z,59.55
2022-10-04T03:06:01.300Z,59.48
2022-10-04T03:07:01.303Z,59.69
2022-10-04T03:08:01.296Z,58.42
2022-10-04T03:09:01.313Z,59.27
2022-10-04T03:10:01.291Z,60.33
2022-10-04T03:11:01.270Z,60.87
2022-10-04T03:12:01.269Z,60.22
2022-10-04T03:13:01.269Z,62.01
2022-10-04T03:14:01.273Z,61.43
2022-10-04T03:15:01.265Z,60.69
2022-10-04T03:16:01.271Z,60.81
2022-10-04T03:17:01.233Z,59.73
2022-10-04T03:18:01.226Z,59.63
2022-10-04T03:19:01.211Z,58.88
2022-10-04T03:20:01.215Z,59.02
2022-10-04T03:21:01.214Z,59.04
2022-10-04T03:22:08.193Z,59.99
2022-10-04T03:23:01.190Z,59.21
2022-10-04T03:24:01.230Z,60.52
2022-10-04T03:25:01.175Z,61.06
2022-10-04T03:26:01.180Z,61.12
2022-10-04T03:27:01.261Z,60.86
2022-10-04T03:28:01.235Z,60.58
2022-10-04T03:29:01.193Z,59.74
2022-10-04T03:30:01.141Z,59.88
2022-10-04T03:31:01.262Z,59.53
2022-10-04T03:32:01.121Z,61.02
2022-10-04T03:33:01.149Z,60.61
2022-10-04T03:34:01.107Z,59.68
2022-10-04T03:35:01.101Z,60.41
2022-10-04T03:36:01.086Z,60.17
2022-10-04T03:37:01.088Z,61.07
2022-10-04T03:38:01.093Z,63.59
2022-10-04T03:39:01.081Z,63.11
2022-10-04T03:40:01.083Z,63.39
2022-10-04T03:41:01.048Z,61.27
2022-10-04T03:42:01.073Z,60.51
2022-10-04T03:43:01.074Z,60.11
2022-10-04T03:44:04.877Z,60.74
2022-10-04T03:45:01.041Z,59.23
2022-10-04T03:46:01.229Z,60.00
2022-10-04T03:47:01.031Z,60.12
2022-10-04T03:48:01.021Z,60.08
2022-10-04T03:49:01.002Z,60.08
2022-10-04T03:50:00.990Z,59.19
2022-10-04T03:51:00.978Z,59.63
2022-10-04T03:52:00.990Z,59.49
2022-10-04T03:53:00.989Z,60.41
2022-10-04T03:54:00.967Z,59.94
2022-10-04T03:55:00.966Z,60.40
2022-10-04T03:56:04.289Z,61.41
2022-10-04T03:57:00.935Z,60.25
2022-10-04T03:58:00.939Z,59.82
2022-10-04T03:59:00.955Z,59.22
2022-10-04T04:00:00.929Z,60.63
2022-10-04T04:01:00.952Z,61.62
2022-10-04T04:02:00.946Z,60.41
2022-10-04T04:03:00.992Z,61.40
2022-10-04T04:04:00.899Z,59.97
2022-10-04T04:05:00.920Z,60.87
2022-10-04T04:06:00.901Z,61.81
2022-10-04T04:07:00.887Z,59.69
2022-10-04T04:08:00.873Z,60.32
2022-10-04T04:09:00.870Z,59.78
2022-10-04T04:10:00.860Z,60.08
2022-10-04T04:11:00.911Z,60.77
2022-10-04T04:12:00.841Z,60.09
2022-10-04T04:13:00.948Z,60.21
2022-10-04T04:14:00.828Z,60.51
2022-10-04T04:15:00.828Z,60.13
2022-10-04T04:16:00.886Z,59.64
2022-10-04T04:17:00.814Z,60.06
2022-10-04T04:18:00.806Z,59.12
2022-10-04T04:19:00.938Z,59.10
2022-10-04T04:20:06.139Z,60.66
2022-10-04T04:21:00.821Z,60.54
2022-10-04T04:22:00.906Z,59.81
2022-10-04T04:23:00.774Z,59.66
2022-10-04T04:24:00.802Z,61.49
2022-10-04T04:25:00.768Z,61.33
2022-10-04T04:26:00.752Z,60.53
2022-10-04T04:27:00.788Z,60.91
2022-10-04T04:28:00.852Z,59.81
2022-10-04T04:29:00.737Z,60.26
2022-10-04T04:30:00.743Z,59.07
2022-10-04T04:31:00.779Z,58.81
2022-10-04T04:32:00.743Z,61.70
2022-10-04T04:33:00.726Z,58.91
2022-10-04T04:34:00.893Z,59.40
2022-10-04T04:35:00.713Z,61.80
2022-10-04T04:36:00.690Z,61.80
2022-10-04T04:37:00.680Z,62.89
2022-10-04T04:38:00.718Z,61.99
2022-10-04T04:39:00.724Z,62.19
2022-10-04T04:40:00.752Z,60.81
2022-10-04T04:41:01.303Z,62.17
2022-10-04T04:42:00.707Z,60.80
2022-10-04T04:43:00.650Z,62.30
2022-10-04T04:44:00.638Z,63.11
2022-10-04T04:45:00.761Z,62.17
2022-10-04T04:46:25.970Z,61.20
2022-10-04T04:47:01.640Z,60.45
2022-10-04T04:48:00.647Z,61.68
2022-10-04T04:49:00.623Z,60.25
2022-10-04T04:50:00.608Z,60.25
2022-10-04T04:51:00.606Z,61.63
2022-10-04T04:52:00.611Z,62.22
2022-10-04T04:53:00.577Z,61.07
2022-10-04T04:54:00.599Z,61.87
2022-10-04T04:55:00.601Z,61.13
2022-10-04T04:56:04.805Z,60.76
2022-10-04T04:57:00.584Z,61.33
2022-10-04T04:58:00.587Z,63.26
2022-10-04T04:59:00.561Z,62.07
2022-10-04T05:00:00.581Z,62.59
2022-10-04T05:01:00.686Z,61.96
2022-10-04T05:02:00.621Z,62.31
2022-10-04T05:03:00.588Z,62.13
2022-10-04T05:04:00.537Z,61.58
2022-10-04T05:05:00.509Z,60.80
2022-10-04T05:06:00.516Z,61.47
2022-10-04T05:07:00.559Z,60.82
2022-10-04T05:08:00.602Z,62.40
2022-10-04T05:09:00.494Z,62.57
2022-10-04T05:10:00.494Z,61.69
2022-10-04T05:11:00.517Z,62.55
2022-10-04T05:12:00.478Z,62.50
2022-10-04T05:13:00.464Z,62.50
2022-10-04T05:14:00.484Z,62.03
2022-10-04T05:15:00.499Z,62.13
2022-10-04T05:16:00.498Z,62.23
2022-10-04T05:17:00.429Z,59.73
2022-10-04T05:18:00.501Z,61.34
2022-10-04T05:19:00.447Z,61.46
2022-10-04T05:20:00.935Z,61.83
2022-10-04T05:21:00.419Z,61.42
2022-10-04T05:22:00.499Z,63.67
2022-10-04T05:23:00.409Z,63.70
2022-10-04T05:24:00.389Z,65.13
2022-10-04T05:25:00.398Z,62.90
2022-10-04T05:26:00.386Z,62.33
2022-10-04T05:27:00.389Z,61.91
2022-10-04T05:28:00.418Z,61.78
2022-10-04T05:29:00.356Z,61.26
2022-10-04T05:30:00.348Z,60.38
2022-10-04T05:31:00.337Z,62.41
2022-10-04T05:32:00.424Z,60.99
2022-10-04T05:33:00.330Z,61.83
2022-10-04T05:34:00.342Z,57.65
2022-10-04T05:35:00.345Z,60.83
2022-10-04T05:36:00.303Z,62.65
2022-10-04T05:37:00.300Z,62.97
2022-10-04T05:38:00.286Z,62.61
2022-10-04T05:39:00.283Z,62.55
2022-10-04T05:40:00.283Z,61.59
2022-10-04T05:41:00.286Z,61.56
2022-10-04T05:42:00.273Z,61.26
2022-10-04T05:43:00.258Z,63.80
2022-10-04T05:44:00.260Z,62.26
2022-10-04T05:45:00.241Z,61.40
2022-10-04T05:46:00.267Z,61.49
2022-10-04T05:47:00.233Z,61.19
2022-10-04T05:48:00.224Z,59.39
2022-10-04T05:49:00.235Z,60.08
2022-10-04T05:50:00.212Z,61.10
2022-10-04T05:51:00.210Z,60.91
2022-10-04T05:52:00.209Z,60.42
2022-10-04T05:53:00.209Z,60.06
2022-10-04T05:54:00.203Z,58.88
2022-10-04T05:55:00.214Z,60.35
2022-10-04T05:56:00.171Z,61.40
2022-10-04T05:57:00.177Z,60.73
2022-10-04T05:58:00.151Z,61.00
2022-10-04T05:59:00.170Z,60.72
2022-10-04T06:00:04.208Z,60.43
2022-10-04T06:01:00.212Z,60.65
2022-10-04T06:02:00.258Z,60.48
2022-10-04T06:03:00.127Z,61.25
2022-10-04T06:04:00.129Z,61.53
2022-10-04T06:05:00.130Z,61.61
2022-10-04T06:06:00.106Z,61.88
2022-10-04T06:07:00.120Z,62.48
2022-10-04T06:08:00.086Z,61.90
2022-10-04T06:09:00.090Z,61.86
2022-10-04T06:10:00.071Z,62.58
2022-10-04T06:11:00.074Z,61.34
2022-10-04T06:12:00.064Z,62.41
2022-10-04T06:13:00.097Z,63.22
2022-10-04T06:14:00.039Z,62.65
2022-10-04T06:15:00.031Z,61.07
2022-10-04T06:16:00.059Z,62.11
2022-10-04T06:17:00.125Z,60.42
2022-10-04T06:18:00.011Z,61.78
2022-10-04T06:19:00.002Z,61.06
2022-10-04T06:20:00.011Z,62.04
2022-10-04T06:20:59.996Z,60.97
2022-10-04T06:21:59.982Z,61.79
2022-10-04T06:23:00.010Z,61.86
2022-10-04T06:23:59.966Z,61.90
2022-10-04T06:24:59.959Z,61.89
2022-10-04T06:25:59.969Z,62.39
2022-10-04T06:26:59.948Z,61.77
2022-10-04T06:28:00.035Z,62.88
2022-10-04T06:28:59.941Z,61.96
2022-10-04T06:29:59.951Z,63.38
2022-10-04T06:31:00.002Z,64.99
2022-10-04T06:31:59.915Z,61.58
2022-10-04T06:32:59.948Z,61.05
2022-10-04T06:33:59.900Z,61.49
2022-10-04T06:34:59.920Z,61.32
2022-10-04T06:35:59.892Z,62.41
2022-10-04T06:36:59.922Z,62.02
2022-10-04T06:37:59.886Z,61.91
2022-10-04T06:39:03.434Z,62.95
2022-10-04T06:39:59.862Z,62.02
2022-10-04T06:40:59.857Z,61.95
2022-10-04T06:41:59.847Z,61.94
2022-10-04T06:42:59.894Z,61.99
2022-10-04T06:43:59.842Z,61.97
2022-10-04T06:44:59.872Z,61.53
2022-10-04T06:45:59.887Z,62.42
2022-10-04T06:46:59.834Z,61.82
2022-10-04T06:47:59.844Z,63.87
2022-10-04T06:48:59.828Z,62.02
2022-10-04T06:49:59.810Z,61.97
2022-10-04T06:50:59.814Z,62.20
2022-10-04T06:51:59.791Z,61.51
2022-10-04T06:52:59.782Z,61.97
2022-10-04T06:53:59.801Z,62.02
2022-10-04T06:54:59.784Z,62.59
2022-10-04T06:55:59.782Z,64.45
2022-10-04T06:56:59.757Z,61.35
2022-10-04T06:57:59.745Z,62.26
2022-10-04T06:58:59.759Z,64.13
2022-10-04T06:59:59.741Z,63.27
2022-10-04T07:00:59.762Z,62.61
2022-10-04T07:01:59.814Z,61.28
2022-10-04T07:02:59.715Z,61.26
2022-10-04T07:03:59.710Z,61.98
2022-10-04T07:05:15.040Z,61.81
2022-10-04T07:06:00.696Z,61.93
2022-10-04T07:06:59.697Z,62.47
2022-10-04T07:07:59.699Z,62.58
2022-10-04T07:08:59.732Z,61.92
2022-10-04T07:09:59.696Z,62.45
2022-10-04T07:10:59.677Z,62.87
2022-10-04T07:11:59.651Z,62.97
2022-10-04T07:12:59.648Z,63.29
2022-10-04T07:13:59.639Z,62.93
2022-10-04T07:14:59.630Z,62.10
2022-10-04T07:15:59.672Z,62.56
2022-10-04T07:16:59.619Z,63.40
2022-10-04T07:17:59.609Z,63.45
2022-10-04T07:18:59.598Z,62.20
2022-10-04T07:19:59.594Z,62.50
2022-10-04T07:20:59.593Z,62.65
2022-10-04T07:21:59.611Z,63.16
2022-10-04T07:22:59.575Z,62.62
2022-10-04T07:23:59.573Z,62.38
2022-10-04T07:24:59.559Z,62.59
2022-10-04T07:25:59.551Z,62.80
2022-10-04T07:26:59.561Z,62.57
2022-10-04T07:27:59.589Z,62.79
2022-10-04T07:28:59.531Z,61.12
2022-10-04T07:29:59.516Z,62.33
2022-10-04T07:30:59.581Z,64.11
2022-10-04T07:31:59.526Z,63.27
2022-10-04T07:32:59.511Z,62.70
2022-10-04T07:33:59.508Z,63.73
2022-10-04T07:34:59.487Z,62.66
2022-10-04T07:35:59.502Z,62.98
2022-10-04T07:36:59.504Z,63.30
2022-10-04T07:37:59.466Z,63.22
2022-10-04T07:38:59.463Z,62.98
2022-10-04T07:39:59.456Z,62.55
2022-10-04T07:40:59.441Z,63.33
2022-10-04T07:41:59.453Z,63.46
2022-10-04T07:42:59.445Z,62.57
2022-10-04T07:43:59.442Z,62.67
2022-10-04T07:44:59.442Z,62.43
2022-10-04T07:45:59.451Z,62.20
2022-10-04T07:46:59.406Z,61.72
2022-10-04T07:47:59.400Z,60.45
2022-10-04T07:48:59.406Z,60.58
2022-10-04T07:49:59.382Z,61.06
2022-10-04T07:50:59.393Z,62.11
2022-10-04T07:51:59.364Z,61.57
2022-10-04T07:52:59.359Z,62.08
2022-10-04T07:53:59.358Z,62.68
2022-10-04T07:54:59.379Z,63.16
2022-10-04T07:55:59.340Z,62.12
2022-10-04T07:56:59.325Z,62.90
2022-10-04T07:57:59.323Z,62.95
2022-10-04T07:58:59.319Z,62.80
2022-10-04T07:59:59.308Z,62.01
2022-10-04T08:00:59.338Z,61.74
2022-10-04T08:01:59.342Z,62.00
2022-10-04T08:02:59.360Z,61.36
2022-10-04T08:03:59.270Z,63.16
2022-10-04T08:04:59.279Z,62.50
2022-10-04T08:05:59.261Z,61.79
2022-10-04T08:06:59.267Z,61.25
2022-10-04T08:07:59.248Z,61.55
2022-10-04T08:08:59.236Z,61.87
2022-10-04T08:09:59.229Z,61.12
2022-10-04T08:10:59.223Z,60.58
2022-10-04T08:11:59.237Z,60.61
2022-10-04T08:12:59.238Z,59.63
2022-10-04T08:13:59.225Z,61.51
2022-10-04T08:14:59.202Z,59.58
2022-10-04T08:15:59.346Z,60.00
2022-10-04T08:16:59.183Z,61.64
2022-10-04T08:17:59.197Z,61.38
2022-10-04T08:18:59.168Z,60.98
2022-10-04T08:19:59.160Z,60.52
2022-10-04T08:20:59.197Z,62.20
2022-10-04T08:21:59.144Z,60.06
2022-10-04T08:22:59.129Z,61.16
2022-10-04T08:23:59.193Z,60.85
2022-10-04T08:24:59.122Z,59.89
2022-10-04T08:25:59.122Z,61.61
2022-10-04T08:26:59.126Z,61.22
2022-10-04T08:27:59.151Z,61.13
2022-10-04T08:28:59.096Z,61.88
2022-10-04T08:29:59.088Z,61.83
2022-10-04T08:30:59.117Z,61.39
2022-10-04T08:32:04.259Z,62.12
2022-10-04T08:33:00.097Z,62.49
2022-10-04T08:33:59.060Z,60.98
2022-10-04T08:34:59.048Z,61.03
2022-10-04T08:35:59.044Z,61.52
2022-10-04T08:36:59.025Z,62.67
2022-10-04T08:37:59.057Z,60.50
2022-10-04T08:38:59.016Z,60.08
2022-10-04T08:39:59.014Z,59.42
2022-10-04T08:40:59.021Z,60.71
2022-10-04T08:41:58.982Z,59.12
2022-10-04T08:42:58.977Z,59.68
2022-10-04T08:43:58.971Z,58.44
2022-10-04T08:44:58.962Z,58.12
2022-10-04T08:45:58.982Z,59.09
2022-10-04T08:46:59.009Z,58.64
2022-10-04T08:47:58.962Z,58.97
2022-10-04T08:48:58.940Z,60.21
2022-10-04T08:49:58.918Z,58.64
2022-10-04T08:50:58.907Z,60.62
2022-10-04T08:51:58.923Z,59.42
2022-10-04T08:52:58.909Z,59.67
2022-10-04T08:53:58.878Z,59.47
2022-10-04T08:54:58.895Z,60.58
2022-10-04T08:55:58.868Z,59.87
2022-10-04T08:56:58.857Z,60.41
2022-10-04T08:57:58.876Z,59.96
2022-10-04T08:58:58.841Z,60.34
2022-10-04T08:59:58.833Z,60.31
2022-10-04T09:00:58.849Z,59.32
2022-10-04T09:01:58.835Z,60.05
2022-10-04T09:02:58.863Z,60.20
2022-10-04T09:03:58.813Z,59.21
2022-10-04T09:04:58.811Z,59.31
2022-10-04T09:05:58.782Z,58.41
2022-10-04T09:06:58.774Z,58.97
2022-10-04T09:07:58.780Z,57.81
2022-10-04T09:08:58.752Z,57.72
2022-10-04T09:09:58.803Z,58.39
2022-10-04T09:10:58.745Z,58.29
2022-10-04T09:11:58.735Z,59.55
2022-10-04T09:12:58.738Z,59.98
2022-10-04T09:13:58.719Z,60.09
2022-10-04T09:14:58.730Z,58.79
2022-10-04T09:15:58.788Z,59.37
2022-10-04T09:16:58.699Z,59.73
2022-10-04T09:17:58.716Z,58.98
2022-10-04T09:18:58.680Z,60.93
2022-10-04T09:20:13.933Z,60.71
2022-10-04T09:20:59.685Z,59.31
2022-10-04T09:22:02.029Z,59.70
2022-10-04T09:23:06.632Z,58.88
2022-10-04T09:23:58.636Z,59.69
2022-10-04T09:24:58.638Z,60.03
2022-10-04T09:25:58.620Z,59.37
2022-10-04T09:26:58.635Z,59.92
2022-10-04T09:27:58.688Z,58.73
2022-10-04T09:29:03.930Z,58.41
2022-10-04T09:29:59.604Z,59.51
2022-10-04T09:30:58.609Z,58.44
2022-10-04T09:31:58.579Z,58.02
2022-10-04T09:32:58.571Z,57.58
2022-10-04T09:33:58.560Z,58.29
2022-10-04T09:34:58.578Z,58.56
2022-10-04T09:35:58.540Z,59.09
2022-10-04T09:36:58.546Z,58.15
2022-10-04T09:37:58.562Z,57.80
2022-10-04T09:39:25.309Z,59.19
2022-10-04T09:39:59.526Z,57.86
2022-10-04T09:40:58.507Z,58.34
2022-10-04T09:41:58.507Z,57.45
2022-10-04T09:42:58.493Z,57.98
2022-10-04T09:43:58.479Z,57.76
2022-10-04T09:44:58.466Z,58.15
2022-10-04T09:45:58.513Z,58.87
2022-10-04T09:46:58.512Z,58.97
2022-10-04T09:47:58.459Z,58.43
2022-10-04T09:48:58.444Z,58.69
2022-10-04T09:49:58.423Z,59.10
2022-10-04T09:50:58.438Z,57.98
2022-10-04T09:51:58.405Z,59.05
2022-10-04T09:52:58.431Z,59.96
2022-10-04T09:53:58.421Z,60.38
2022-10-04T09:54:58.398Z,59.40
2022-10-04T09:55:58.384Z,59.82
2022-10-04T09:56:58.391Z,60.78
2022-10-04T09:57:58.359Z,59.87
2022-10-04T09:58:58.360Z,59.63
2022-10-04T09:59:58.343Z,57.55
2022-10-04T10:00:58.353Z,58.22
2022-10-04T10:01:58.406Z,57.61
2022-10-04T10:02:58.452Z,59.48
2022-10-04T10:03:58.323Z,59.85
2022-10-04T10:04:58.306Z,59.73
2022-10-04T10:05:58.292Z,59.15
2022-10-04T10:06:58.293Z,59.44
2022-10-04T10:07:58.286Z,58.32
2022-10-04T10:08:58.305Z,58.63
2022-10-04T10:09:58.274Z,59.92
2022-10-04T10:10:58.274Z,58.63
2022-10-04T10:11:58.259Z,59.54
2022-10-04T10:12:58.238Z,59.91
2022-10-04T10:13:58.242Z,60.01
2022-10-04T10:14:58.237Z,60.23
2022-10-04T10:15:58.284Z,59.04
2022-10-04T10:16:58.235Z,58.88
2022-10-04T10:17:58.193Z,59.07
2022-10-04T10:18:58.185Z,58.50
2022-10-04T10:19:58.194Z,58.73
2022-10-04T10:20:58.166Z,58.69
2022-10-04T10:21:58.148Z,58.81
2022-10-04T10:22:58.158Z,59.05
2022-10-04T10:23:58.140Z,58.16
2022-10-04T10:24:58.621Z,57.83
2022-10-04T10:25:58.141Z,58.63
2022-10-04T10:26:58.151Z,56.79
2022-10-04T10:27:58.156Z,57.19
2022-10-04T10:28:58.109Z,58.28
2022-10-04T10:29:58.095Z,57.94
2022-10-04T10:30:58.127Z,58.75
2022-10-04T10:31:58.103Z,58.84
2022-10-04T10:32:58.070Z,60.50
2022-10-04T10:33:58.056Z,59.35
2022-10-04T10:34:58.047Z,59.44
2022-10-04T10:35:58.042Z,58.32
2022-10-04T10:36:58.057Z,59.22
2022-10-04T10:38:02.311Z,60.75
2022-10-04T10:38:59.031Z,60.06
2022-10-04T10:39:58.014Z,59.43
2022-10-04T10:40:58.002Z,59.84
2022-10-04T10:41:58.005Z,58.24
2022-10-04T10:42:57.985Z,59.43
2022-10-04T10:43:57.968Z,59.39
2022-10-04T10:44:57.990Z,59.46
2022-10-04T10:45:57.980Z,58.72
2022-10-04T10:46:57.986Z,59.04
2022-10-04T10:47:57.937Z,59.90
2022-10-04T10:48:57.956Z,58.47
2022-10-04T10:49:57.929Z,59.30
2022-10-04T10:50:57.916Z,58.88
2022-10-04T10:51:57.905Z,59.36
2022-10-04T10:52:57.896Z,60.02
2022-10-04T10:53:57.901Z,59.24
2022-10-04T10:54:57.903Z,58.32
2022-10-04T10:55:57.877Z,59.58
2022-10-04T10:56:57.868Z,58.96
2022-10-04T10:57:57.855Z,60.23
2022-10-04T10:58:57.851Z,60.12
2022-10-04T10:59:57.907Z,59.40
2022-10-04T11:00:57.833Z,58.45
2022-10-04T11:01:57.966Z,59.98
2022-10-04T11:03:12.100Z,60.02
2022-10-04T11:03:58.853Z,60.14
2022-10-04T11:04:57.849Z,60.14
2022-10-04T11:05:57.789Z,60.66
2022-10-04T11:06:57.787Z,59.96
2022-10-04T11:07:57.770Z,60.23
2022-10-04T11:08:57.787Z,59.70
2022-10-04T11:09:57.761Z,58.89
2022-10-04T11:10:57.783Z,57.72
2022-10-04T11:11:57.788Z,58.04
2022-10-04T11:12:57.747Z,57.71
2022-10-04T11:13:57.723Z,59.04
2022-10-04T11:14:57.720Z,59.88
2022-10-04T11:15:57.787Z,59.72
2022-10-04T11:16:57.706Z,59.33
2022-10-04T11:17:57.720Z,58.59
2022-10-04T11:18:57.691Z,57.28
2022-10-04T11:19:57.678Z,60.37
2022-10-04T11:20:57.677Z,60.19
2022-10-04T11:21:57.681Z,59.91
2022-10-04T11:22:57.659Z,59.14
2022-10-04T11:23:57.666Z,59.25
2022-10-04T11:24:57.634Z,59.67
2022-10-04T11:25:57.628Z,58.98
2022-10-04T11:26:57.657Z,59.30
2022-10-04T11:27:57.731Z,57.38
2022-10-04T11:28:57.616Z,57.57
2022-10-04T11:29:57.592Z,58.23
2022-10-04T11:30:57.651Z,60.19
2022-10-04T11:31:57.575Z,60.71
2022-10-04T11:32:57.592Z,60.62
2022-10-04T11:33:57.593Z,59.30
2022-10-04T11:34:57.579Z,59.22
2022-10-04T11:35:57.568Z,59.28
2022-10-04T11:36:57.543Z,59.30
2022-10-04T11:37:57.528Z,59.71
2022-10-04T11:38:57.528Z,60.44
2022-10-04T11:39:57.536Z,59.49
2022-10-04T11:40:57.521Z,59.47
2022-10-04T11:41:57.501Z,58.40
2022-10-04T11:42:57.495Z,57.57
2022-10-04T11:43:57.494Z,56.95
2022-10-04T11:44:57.497Z,58.28
2022-10-04T11:45:57.528Z,57.23
2022-10-04T11:46:57.562Z,58.26
2022-10-04T11:47:57.464Z,58.77
2022-10-04T11:48:57.455Z,59.20
2022-10-04T11:49:57.444Z,58.78
2022-10-04T11:50:57.466Z,59.73
2022-10-04T11:52:01.912Z,59.17
2022-10-04T11:52:58.418Z,59.27
2022-10-04T11:53:57.438Z,59.49
2022-10-04T11:54:57.401Z,58.63
2022-10-04T11:55:57.427Z,58.75
2022-10-04T11:56:57.397Z,59.31
2022-10-04T11:57:57.386Z,58.56
2022-10-04T11:58:57.394Z,59.66
2022-10-04T11:59:57.362Z,58.60
2022-10-04T12:00:57.355Z,60.04
2022-10-04T12:01:57.341Z,58.06
2022-10-04T12:02:57.335Z,59.54
2022-10-04T12:03:57.443Z,60.42
2022-10-04T12:04:57.409Z,60.03
2022-10-04T12:05:57.306Z,58.52
2022-10-04T12:06:57.319Z,58.61
2022-10-04T12:07:57.302Z,57.79
2022-10-04T12:08:57.291Z,57.28
2022-10-04T12:10:00.768Z,59.04
2022-10-04T12:10:57.291Z,58.93
2022-10-04T12:11:57.278Z,59.81
2022-10-04T12:12:57.262Z,59.07
2022-10-04T12:13:57.253Z,61.34
2022-10-04T12:14:57.256Z,60.84
2022-10-04T12:15:57.288Z,61.12
2022-10-04T12:16:57.249Z,59.48
2022-10-04T12:17:57.224Z,58.05
2022-10-04T12:18:57.233Z,58.12
2022-10-04T12:19:57.204Z,58.63
2022-10-04T12:20:57.222Z,59.01
2022-10-04T12:21:57.182Z,59.02
2022-10-04T12:22:57.196Z,57.57
2022-10-04T12:23:57.195Z,58.20
2022-10-04T12:24:57.167Z,59.53
2022-10-04T12:25:57.163Z,59.17
2022-10-04T12:26:57.166Z,59.02
2022-10-04T12:27:57.187Z,58.77
2022-10-04T12:28:57.139Z,60.37
2022-10-04T12:29:57.144Z,60.41
2022-10-04T12:30:57.128Z,58.85
2022-10-04T12:31:57.136Z,57.80
2022-10-04T12:32:58.341Z,58.95
2022-10-04T12:33:57.096Z,59.45
2022-10-04T12:34:57.085Z,60.11
2022-10-04T12:35:57.084Z,59.71
2022-10-04T12:36:57.071Z,60.18
2022-10-04T12:37:57.065Z,60.16
2022-10-04T12:38:57.074Z,59.16
2022-10-04T12:39:57.045Z,60.00
2022-10-04T12:40:57.040Z,60.22
2022-10-04T12:41:57.031Z,59.52
2022-10-04T12:42:57.037Z,58.12
2022-10-04T12:43:57.041Z,58.72
2022-10-04T12:44:57.013Z,58.83
2022-10-04T12:45:57.086Z,58.64
2022-10-04T12:46:56.993Z,59.43
2022-10-04T12:47:56.975Z,58.51
2022-10-04T12:48:56.973Z,59.10
2022-10-04T12:49:56.987Z,59.32
2022-10-04T12:50:56.974Z,61.41
2022-10-04T12:51:56.947Z,61.12